Time;durP1;ratioP1;P1;durP2;ratioP2;P2;SDS_P1;SDS_P2;PMS_P1;PMS_P2;Temp;Humidity;BMP_temperature;BMP_pressure;BME280_temperature;BME280_humidity;BME280_pressure;Samples;Min_cycle;Max_cycle;Signal;HPM_P1;HPM_P2
2023/06/08 00:00:20;;;;;;;8.80;6.00;;;18.40;83.90;;;18.23;58.44;101232.75;5073159;28;20251;-74
2023/06/08 00:02:56;;;;;;;9.63;6.07;;;18.30;84.50;;;18.32;58.25;101234.28;5073013;28;20225;-76
2023/06/08 00:05:29;;;;;;;14.00;6.00;;;18.40;84.60;;;18.32;57.65;101239.72;5072902;28;20591;-76
2023/06/08 00:08:03;;;;;;;9.97;6.03;;;18.50;84.00;;;18.27;57.90;101244.88;5072821;28;20621;-76
2023/06/08 00:10:36;;;;;;;8.27;6.33;;;18.40;84.00;;;18.12;59.16;101242.25;5074818;28;20193;-75
2023/06/08 00:13:10;;;;;;;9.60;5.63;;;18.20;85.10;;;18.10;58.79;101232.66;5077058;28;20272;-75
2023/06/08 00:15:43;;;;;;;9.27;6.00;;;18.20;85.60;;;18.10;58.67;101238.09;5077183;28;20692;-76
2023/06/08 00:18:17;;;;;;;8.50;5.87;;;18.20;85.20;;;18.02;59.20;101232.78;5075737;28;20190;-74
2023/06/08 00:20:51;;;;;;;7.47;5.80;;;18.10;86.20;;;17.98;59.46;101232.34;5075927;28;20271;-76
2023/06/08 00:23:25;;;;;;;7.30;5.90;;;18.10;85.80;;;17.91;60.01;101228.75;5075731;28;20221;-75
2023/06/08 00:26:00;;;;;;;11.37;6.20;;;18.00;87.20;;;17.88;60.25;101233.72;5075699;28;20186;-76
2023/06/08 00:28:33;;;;;;;10.67;6.23;;;18.00;86.50;;;17.83;60.33;101230.78;5075730;28;20221;-74
2023/06/08 00:31:06;;;;;;;9.80;6.40;;;18.00;86.90;;;17.79;60.25;101234.91;5075796;28;20281;-75
2023/06/08 00:33:40;;;;;;;8.00;5.93;;;17.90;86.90;;;17.87;60.04;101237.50;5075387;28;20702;-75
2023/06/08 00:36:15;;;;;;;7.70;6.00;;;18.00;87.10;;;17.90;59.74;101237.94;5075467;28;20232;-75
2023/06/08 00:38:48;;;;;;;11.03;6.40;;;18.10;86.60;;;17.89;60.08;101230.84;5075472;28;20220;-76
2023/06/08 00:41:21;;;;;;;7.27;6.03;;;18.10;86.60;;;17.83;60.19;101233.50;5075428;28;20217;-76
2023/06/08 00:43:54;;;;;;;8.43;6.67;;;18.00;87.60;;;17.74;60.58;101235.47;5075199;28;20228;-75
2023/06/08 00:46:30;;;;;;;12.70;6.60;;;17.90;87.50;;;17.68;60.69;101223.56;5075024;28;20229;-76
2023/06/08 00:49:07;;;;;;;9.90;6.77;;;17.80;87.30;;;17.66;60.50;101231.06;5075236;28;20193;-76
2023/06/08 00:51:44;;;;;;;11.10;6.17;;;17.80;87.80;;;17.68;60.47;101229.00;5075148;28;20259;-74
2023/06/08 00:54:18;;;;;;;10.03;6.67;;;17.80;87.50;;;17.71;60.50;101227.75;5074848;28;20309;-74
2023/06/08 00:56:52;;;;;;;12.13;6.60;;;17.90;87.20;;;17.67;60.26;101227.31;5075022;28;20721;-75
2023/06/08 00:59:27;;;;;;;7.77;6.27;;;17.80;87.70;;;17.60;60.86;101231.81;5075133;28;20284;-76
2023/06/08 01:02:03;;;;;;;10.60;6.40;;;17.70;87.80;;;17.62;59.93;101232.47;5075057;28;20253;-76
2023/06/08 01:04:39;;;;;;;10.97;6.50;;;17.80;87.60;;;17.60;60.37;101226.41;5074996;28;20192;-76
2023/06/08 01:07:25;;;;;;;9.40;6.90;;;17.70;88.00;;;17.54;61.44;101221.75;5075041;28;20192;-76
2023/06/08 01:10:06;;;;;;;9.57;6.43;;;17.70;88.60;;;17.54;60.55;101221.75;5074975;28;20185;-76
2023/06/08 01:12:52;;;;;;;10.37;6.43;;;17.70;88.20;;;17.48;61.05;101219.81;5074800;28;20332;-75
2023/06/08 01:18:17;;;;;;;10.80;5.97;;;17.60;87.90;;;17.47;60.48;101217.28;5085674;27;20554;-71
2023/06/08 01:21:06;;;;;;;10.77;6.57;;;17.60;87.70;;;17.46;60.71;101219.19;5065560;28;20669;-69
2023/06/08 01:24:05;;;;;;;9.57;6.30;;;17.60;87.60;;;17.46;59.79;101212.94;5060131;28;20269;-71
2023/06/08 01:26:34;;;;;;;11.40;6.20;;;17.60;87.40;;;17.37;59.83;101209.50;5045655;28;20673;-71
2023/06/08 01:29:02;;;;;;;9.10;5.93;;;17.60;86.80;;;17.38;59.71;101200.34;5045429;28;20308;-71
2023/06/08 01:31:30;;;;;;;8.53;6.23;;;17.60;87.20;;;17.34;59.75;101206.34;5045701;28;20857;-70
2023/06/08 01:33:59;;;;;;;14.10;6.20;;;17.50;88.20;;;17.36;60.02;101194.31;5045407;28;20276;-71
2023/06/08 01:36:40;;;;;;;7.80;6.23;;;17.50;87.40;;;17.20;59.39;101202.66;5045465;28;20694;-71
2023/06/08 01:39:29;;;;;;;9.80;6.10;;;17.40;86.80;;;17.20;60.24;101197.25;5045613;28;20233;-71
2023/06/08 01:42:02;;;;;;;8.93;6.10;;;17.40;87.70;;;17.17;60.11;101198.47;5045352;28;20285;-70
2023/06/08 01:44:37;;;;;;;8.63;6.03;;;17.40;87.60;;;17.05;60.65;101199.19;5045705;28;20230;-70
2023/06/08 01:47:07;;;;;;;9.50;6.10;;;17.20;88.60;;;16.82;60.85;101198.47;5045443;28;20602;-71
2023/06/08 01:49:38;;;;;;;9.77;7.23;;;17.10;88.10;;;16.88;61.13;101190.47;5044945;28;20242;-70
2023/06/08 01:52:07;;;;;;;10.50;6.23;;;17.10;88.20;;;16.86;60.83;101199.78;5045373;28;20245;-71
2023/06/08 01:54:39;;;;;;;10.20;6.13;;;17.10;88.10;;;16.83;60.94;101192.03;5045435;28;20222;-71
2023/06/08 01:57:08;;;;;;;10.27;6.07;;;17.00;88.00;;;16.85;60.70;101195.41;5045260;28;20261;-71
2023/06/08 01:59:36;;;;;;;8.37;6.60;;;17.10;89.10;;;16.63;60.84;101195.34;5044960;28;20202;-70
2023/06/08 02:02:05;;;;;;;11.80;6.63;;;16.90;88.60;;;16.68;61.76;101203.72;5044920;28;20675;-71
2023/06/08 02:04:33;;;;;;;11.40;5.90;;;16.90;88.80;;;16.72;60.99;101194.19;5044998;28;20256;-69
2023/06/08 02:07:01;;;;;;;10.27;6.87;;;17.00;88.50;;;16.71;60.90;101194.41;5045264;28;20289;-70
2023/06/08 02:09:30;;;;;;;14.23;6.40;;;17.00;87.80;;;16.73;60.49;101190.47;5044526;28;20296;-70
2023/06/08 02:12:08;;;;;;;13.10;6.90;;;17.00;88.00;;;16.63;60.27;101189.94;5045203;28;20202;-71
2023/06/08 02:14:36;;;;;;;13.10;6.33;;;16.90;87.80;;;16.69;60.85;101193.75;5044788;28;20726;-71
2023/06/08 02:17:05;;;;;;;12.27;6.17;;;16.90;88.40;;;16.59;62.56;101188.63;5044747;28;20232;-70
2023/06/08 02:19:34;;;;;;;14.60;6.97;;;16.90;89.80;;;16.68;63.03;101182.09;5044806;28;20222;-70
2023/06/08 02:22:03;;;;;;;13.77;7.73;;;16.90;90.80;;;16.58;65.01;101186.94;5044953;28;20232;-71
2023/06/08 02:24:31;;;;;;;12.27;7.23;;;16.90;91.50;;;16.57;66.19;101185.28;5044643;28;20317;-70
2023/06/08 02:26:59;;;;;;;13.17;7.07;;;16.80;92.10;;;16.63;67.15;101184.53;5045267;28;20562;-70
2023/06/08 02:29:29;;;;;;;9.83;7.07;;;16.90;92.70;;;16.63;65.79;101189.94;5031600;28;20229;-71
2023/06/08 02:31:57;;;;;;;12.37;7.30;;;16.80;92.10;;;16.59;65.48;101185.09;5031741;28;20294;-71
2023/06/08 02:34:25;;;;;;;13.17;7.73;;;16.80;92.40;;;16.46;67.81;101188.44;5031090;28;20229;-72
2023/06/08 02:36:53;;;;;;;11.40;7.63;;;16.70;93.20;;;16.48;66.90;101191.78;5031514;28;20304;-71
2023/06/08 02:39:21;;;;;;;9.33;7.37;;;16.60;93.40;;;16.50;67.09;101189.75;5031167;28;20245;-71
2023/06/08 02:41:50;;;;;;;13.53;7.63;;;16.70;93.50;;;16.47;67.09;101184.69;5031268;28;20297;-71
2023/06/08 02:44:19;;;;;;;14.57;7.30;;;16.70;93.40;;;16.43;67.03;101183.41;5031396;28;20310;-72
2023/06/08 02:46:50;;;;;;;10.50;7.63;;;16.60;93.20;;;16.47;67.54;101187.38;5031181;28;20249;-72
2023/06/08 02:49:21;;;;;;;11.03;7.13;;;16.70;93.90;;;16.50;67.51;101178.09;5031083;28;20195;-72
2023/06/08 02:51:49;;;;;;;13.83;7.23;;;16.70;93.70;;;16.49;66.24;101182.66;5030812;28;20747;-71
2023/06/08 02:54:19;;;;;;;11.33;6.80;;;16.70;93.40;;;16.39;67.30;101176.69;5031175;28;20281;-72
2023/06/08 02:56:47;;;;;;;12.50;7.00;;;16.60;93.40;;;16.32;67.83;101175.78;5031027;28;20211;-71
2023/06/08 02:59:16;;;;;;;14.53;7.57;;;16.60;93.80;;;16.27;68.29;101178.19;5030296;28;20207;-71
2023/06/08 03:01:52;;;;;;;12.57;7.40;;;16.50;94.10;;;16.28;67.15;101185.25;5030596;28;20231;-71
2023/06/08 03:04:23;;;;;;;12.43;7.30;;;16.50;93.70;;;16.28;67.14;101176.31;5030598;28;20646;-71
2023/06/08 03:06:53;;;;;;;16.60;7.53;;;16.50;93.80;;;16.20;67.23;101188.03;5031081;28;20195;-71
2023/06/08 03:09:21;;;;;;;16.03;7.40;;;16.50;93.70;;;16.21;66.82;101178.94;5030134;28;20221;-71
2023/06/08 03:11:50;;;;;;;14.63;7.57;;;16.40;93.70;;;16.04;67.64;101183.69;5030542;28;20215;-71
2023/06/08 03:14:19;;;;;;;13.17;7.60;;;16.30;93.90;;;16.10;67.32;101177.53;5030483;28;20265;-71
2023/06/08 03:16:48;;;;;;;11.77;6.73;;;16.40;93.80;;;16.13;66.32;101179.03;5030239;28;20308;-71
2023/06/08 03:19:16;;;;;;;11.50;6.67;;;16.40;93.30;;;16.12;66.29;101174.66;5030063;28;20230;-71
2023/06/08 03:21:49;;;;;;;13.13;7.50;;;16.40;93.70;;;16.11;66.79;101179.22;5030113;28;20646;-72
2023/06/08 03:24:18;;;;;;;14.10;7.47;;;16.40;93.60;;;16.07;66.26;101177.06;5030573;28;20226;-70
2023/06/08 03:26:46;;;;;;;12.60;7.20;;;16.30;93.60;;;16.05;66.30;101173.72;5030157;28;20294;-72
2023/06/08 03:29:14;;;;;;;13.50;7.30;;;16.20;93.70;;;16.03;66.51;101176.59;5029959;28;20226;-71
2023/06/08 03:31:42;;;;;;;13.87;7.30;;;16.30;93.90;;;16.02;66.43;101176.78;5030199;28;20245;-71
2023/06/08 03:34:11;;;;;;;15.00;7.30;;;16.30;94.30;;;15.98;67.08;101178.19;5030196;28;20337;-71
2023/06/08 03:36:39;;;;;;;13.03;7.30;;;16.30;93.90;;;15.94;66.75;101176.88;5030003;28;20290;-71
2023/06/08 03:39:09;;;;;;;11.83;7.00;;;16.20;94.00;;;15.92;67.20;101185.16;5029717;28;20262;-72
2023/06/08 03:41:39;;;;;;;12.83;7.33;;;16.10;94.20;;;15.91;67.38;101185.34;5029423;28;20305;-71
2023/06/08 03:44:07;;;;;;;18.00;8.07;;;16.10;94.10;;;15.89;67.00;101190.09;5029797;28;20317;-71
2023/06/08 03:46:36;;;;;;;14.30;7.83;;;16.10;94.20;;;15.90;67.73;101189.06;5028636;28;20622;-72
2023/06/08 03:49:04;;;;;;;9.80;7.10;;;16.10;94.40;;;15.71;68.46;101193.13;5029693;28;20730;-72
2023/06/08 03:51:32;;;;;;;15.30;8.07;;;16.00;94.70;;;15.70;68.23;101191.44;5029985;28;20210;-71
2023/06/08 03:54:00;;;;;;;14.97;7.93;;;16.00;94.70;;;15.71;67.83;101196.66;5029684;28;20250;-72
2023/06/08 03:56:30;;;;;;;13.90;7.60;;;16.00;94.60;;;15.73;68.75;101186.50;5029780;28;20293;-72
2023/06/08 03:58:59;;;;;;;13.73;7.77;;;16.00;94.80;;;15.72;68.40;101186.69;5029318;28;20234;-72
2023/06/08 04:01:30;;;;;;;13.07;7.23;;;16.00;94.80;;;15.65;69.09;101191.97;5029801;28;20899;-71
2023/06/08 04:03:58;;;;;;;16.13;8.20;;;16.00;95.00;;;15.58;69.11;101192.91;5029578;28;20227;-71
2023/06/08 04:06:33;;;;;;;16.50;7.97;;;15.80;95.10;;;15.68;68.51;101188.09;5029728;28;20215;-72
2023/06/08 04:09:02;;;;;;;14.03;7.93;;;16.00;94.90;;;15.73;68.89;101186.50;5029296;28;20271;-70
2023/06/08 04:11:31;;;;;;;13.23;7.57;;;16.00;95.10;;;15.63;68.68;101182.38;5029826;28;20236;-71
2023/06/08 04:13:59;;;;;;;13.17;8.07;;;15.90;95.20;;;15.62;68.86;101189.66;5029339;28;20321;-71
2023/06/08 04:16:28;;;;;;;18.17;8.43;;;15.90;95.30;;;15.65;68.86;101189.28;5029560;28;20218;-72
2023/06/08 04:18:56;;;;;;;14.83;8.73;;;15.90;95.40;;;15.61;69.00;101188.00;5028991;28;20273;-71
2023/06/08 04:21:25;;;;;;;12.97;7.80;;;15.90;95.30;;;15.61;69.22;101192.53;5029380;28;20301;-71
2023/06/08 04:23:53;;;;;;;15.57;8.43;;;15.90;95.40;;;15.57;69.51;101185.81;5029473;28;20277;-72
2023/06/08 04:26:22;;;;;;;13.13;8.33;;;15.90;95.30;;;15.65;69.07;101183.88;5029101;28;20211;-72
2023/06/08 04:28:51;;;;;;;14.57;8.20;;;16.00;95.30;;;15.61;69.24;101182.59;5028908;28;20705;-71
2023/06/08 04:31:20;;;;;;;17.77;8.97;;;15.90;95.20;;;15.60;69.21;101186.31;5028505;28;20301;-71
2023/06/08 04:33:48;;;;;;;12.27;7.97;;;15.90;95.40;;;15.50;69.24;101179.47;5029449;28;20234;-71
2023/06/08 04:36:16;;;;;;;15.07;8.67;;;15.80;95.60;;;15.53;69.16;101179.94;5029490;28;20296;-72
2023/06/08 04:38:45;;;;;;;13.07;7.90;;;15.80;95.40;;;15.51;69.47;101190.09;5028881;28;20352;-72
2023/06/08 04:41:14;;;;;;;15.27;8.77;;;15.80;95.60;;;15.56;69.00;101184.97;5029063;28;20213;-72
2023/06/08 04:43:44;;;;;;;15.13;8.57;;;15.80;95.50;;;15.57;69.66;101186.66;5028671;28;20733;-72
2023/06/08 04:46:13;;;;;;;19.50;9.67;;;15.80;95.60;;;15.27;71.41;101201.06;5028840;28;20253;-72
2023/06/08 04:48:43;;;;;;;18.00;9.87;;;15.60;96.40;;;15.24;71.83;101196.81;5028404;28;20202;-71
2023/06/08 04:51:11;;;;;;;17.90;9.53;;;15.50;96.90;;;15.33;71.25;101202.19;5028681;28;20207;-71
2023/06/08 04:53:42;;;;;;;19.57;9.97;;;15.60;96.80;;;15.19;72.63;101206.50;5029026;28;20501;-72
2023/06/08 04:56:18;;;;;;;14.40;9.93;;;15.60;97.30;;;15.03;73.87;101203.91;5028457;28;20206;-71
2023/06/08 04:58:48;;;;;;;15.57;9.33;;;15.40;97.80;;;15.10;73.05;101200.28;5028810;28;20211;-71
2023/06/08 05:01:18;;;;;;;18.57;10.40;;;15.40;97.70;;;15.18;72.59;101205.66;5028786;28;20297;-71
2023/06/08 05:03:46;;;;;;;16.60;9.93;;;15.50;97.60;;;15.15;72.98;101207.84;5028695;28;20226;-70
2023/06/08 05:06:15;;;;;;;16.90;10.00;;;15.40;97.80;;;15.23;73.28;101210.50;5028238;28;20712;-71
2023/06/08 05:08:43;;;;;;;15.67;9.77;;;15.60;97.90;;;15.13;74.05;101204.50;5028516;28;20294;-72
2023/06/08 05:11:13;;;;;;;20.80;10.07;;;15.50;98.00;;;15.11;74.06;101201.13;5028253;28;20669;-70
2023/06/08 05:13:41;;;;;;;17.77;10.10;;;15.40;98.20;;;15.09;74.05;101203.19;5028461;28;20288;-71
2023/06/08 05:16:11;;;;;;;17.63;9.87;;;15.50;98.30;;;15.14;74.73;101206.16;5028741;28;20221;-71
2023/06/08 05:18:40;;;;;;;17.43;10.00;;;15.50;98.40;;;15.16;74.41;101199.59;5028054;28;20742;-72
2023/06/08 05:21:09;;;;;;;18.30;10.43;;;15.40;98.50;;;15.13;74.44;101197.25;5028316;28;20238;-71
2023/06/08 05:23:37;;;;;;;16.40;9.87;;;15.40;98.50;;;15.15;74.53;101197.91;5028199;28;20231;-71
2023/06/08 05:26:05;;;;;;;18.60;10.40;;;15.50;98.40;;;15.10;74.57;101194.91;5028632;28;20245;-71
2023/06/08 05:28:33;;;;;;;20.80;10.00;;;15.50;98.60;;;15.21;73.22;101193.66;5028494;28;20207;-71
2023/06/08 05:31:02;;;;;;;14.83;9.77;;;15.60;98.20;;;15.21;74.63;101191.78;5028276;28;20678;-71
2023/06/08 05:33:30;;;;;;;19.50;10.57;;;15.50;98.50;;;15.27;74.34;101190.25;5028233;28;20238;-70
2023/06/08 05:35:59;;;;;;;17.47;10.23;;;15.60;98.50;;;15.23;74.25;101205.13;5028620;28;20264;-71
2023/06/08 05:38:32;;;;;;;18.83;10.03;;;15.50;98.40;;;15.26;74.06;101198.50;5028356;28;20774;-71
2023/06/08 05:41:01;;;;;;;16.37;9.53;;;15.50;98.40;;;15.24;73.76;101190.59;5027977;28;20628;-71
2023/06/08 05:43:29;;;;;;;21.00;10.67;;;15.60;98.20;;;15.21;73.98;101193.66;5028555;28;20781;-71
2023/06/08 05:45:57;;;;;;;20.00;11.07;;;15.60;98.30;;;15.11;74.89;101179.56;5028411;28;20297;-71
2023/06/08 05:48:25;;;;;;;18.20;10.73;;;15.40;98.70;;;15.15;75.54;101195.22;5028314;28;20237;-71
2023/06/08 05:50:53;;;;;;;16.83;10.27;;;15.40;99.10;;;15.17;75.33;101176.97;5028459;28;20256;-71
2023/06/08 05:53:23;;;;;;;22.47;11.43;;;15.50;99.10;;;15.11;74.65;101190.34;5028005;28;20231;-71
2023/06/08 05:55:51;;;;;;;16.50;11.23;;;15.50;98.80;;;15.23;73.72;101186.22;5028268;28;20750;-71
2023/06/08 05:58:21;;;;;;;20.17;11.03;;;15.50;98.60;;;15.26;74.31;101185.88;5027484;28;20289;-71
2023/06/08 06:00:55;;;;;;;15.73;10.10;;;15.60;98.60;;;15.26;74.14;101188.56;5028558;28;20211;-71
2023/06/08 06:03:24;;;;;;;16.50;10.37;;;15.70;98.70;;;15.17;74.17;101189.66;5029266;28;20313;-71
2023/06/08 06:05:52;;;;;;;17.33;10.77;;;15.60;98.60;;;15.16;74.91;101196.06;5031764;28;20213;-70
2023/06/08 06:08:21;;;;;;;22.30;10.80;;;15.50;98.70;;;15.04;74.54;101200.16;5031612;28;20675;-71
2023/06/08 06:10:50;;;;;;;19.63;11.43;;;15.40;98.70;;;15.09;75.10;101203.19;5031449;28;20230;-71
2023/06/08 06:13:19;;;;;;;16.70;11.80;;;15.50;98.90;;;15.15;74.16;101203.31;5031699;28;20350;-71
2023/06/08 06:15:47;;;;;;;17.17;10.57;;;15.50;98.50;;;15.29;74.11;101199.00;5031438;28;20217;-71
2023/06/08 06:18:15;;;;;;;19.50;11.87;;;15.70;98.60;;;15.20;73.92;101200.09;5031447;28;20604;-71
2023/06/08 06:20:44;;;;;;;21.67;11.90;;;15.70;98.50;;;15.28;73.91;101197.31;5031899;28;20222;-71
2023/06/08 06:23:12;;;;;;;21.40;11.87;;;15.70;98.50;;;15.37;73.71;101193.56;5031944;28;20831;-71
2023/06/08 06:25:40;;;;;;;19.90;11.80;;;15.70;98.40;;;15.46;73.57;101195.16;5051429;28;20206;-71
2023/06/08 06:28:09;;;;;;;17.97;11.57;;;15.80;98.30;;;15.54;73.47;101203.22;5050771;28;20228;-71
2023/06/08 06:30:37;;;;;;;18.43;11.53;;;16.00;98.10;;;15.53;73.15;101198.00;5051099;28;20206;-70
2023/06/08 06:33:06;;;;;;;19.60;11.57;;;15.90;98.00;;;15.61;72.53;101200.66;5048739;28;20225;-71
2023/06/08 06:35:34;;;;;;;19.77;12.23;;;16.00;97.80;;;15.58;72.87;101204.53;5027135;28;20218;-71
2023/06/08 06:38:02;;;;;;;15.50;10.13;;;16.00;97.80;;;15.68;72.08;101204.28;5030484;28;20306;-72
2023/06/08 06:40:30;;;;;;;19.90;11.50;;;16.10;97.60;;;15.61;72.62;101201.47;5030566;28;20604;-71
2023/06/08 06:42:58;;;;;;;17.13;10.97;;;16.00;97.70;;;15.73;72.83;101204.56;5031387;28;20293;-71
2023/06/08 06:45:28;;;;;;;20.23;12.10;;;16.10;97.90;;;15.77;72.37;101205.03;5031933;28;20297;-72
2023/06/08 06:47:56;;;;;;;19.27;11.43;;;16.20;97.90;;;15.85;72.64;101207.69;5031073;28;20265;-71
2023/06/08 06:50:24;;;;;;;19.63;12.20;;;16.60;98.10;;;15.93;72.88;101202.19;5030572;28;20218;-72
2023/06/08 06:52:53;;;;;;;17.73;11.53;;;16.30;97.80;;;15.95;72.77;101198.28;5031188;28;20253;-71
2023/06/08 06:55:21;;;;;;;18.70;11.47;;;16.40;97.60;;;16.02;72.13;101201.94;5031351;28;20241;-72
2023/06/08 06:57:49;;;;;;;23.57;12.77;;;16.40;97.50;;;16.11;72.53;101206.22;5030651;28;20305;-70
2023/06/08 07:00:19;;;;;;;19.17;11.60;;;16.60;97.80;;;16.22;72.12;101213.03;5030205;28;20231;-72
2023/06/08 07:02:49;;;;;;;20.03;12.13;;;16.60;97.70;;;16.34;72.91;101211.53;5030354;28;20305;-71
2023/06/08 07:05:19;;;;;;;17.77;10.93;;;16.80;98.00;;;16.47;71.49;101206.31;5030491;28;20226;-72
2023/06/08 07:07:47;;;;;;;20.17;11.70;;;16.90;97.30;;;16.55;71.13;101205.38;5030673;28;20211;-71
2023/06/08 07:10:15;;;;;;;17.23;10.80;;;17.00;97.10;;;16.63;70.92;101205.31;5030592;28;20314;-70
2023/06/08 07:12:43;;;;;;;15.33;10.43;;;17.10;97.20;;;16.67;70.72;101206.63;5030577;28;20781;-71
2023/06/08 07:15:13;;;;;;;18.23;11.57;;;17.10;96.70;;;16.71;70.35;101202.53;5029847;28;20237;-71
2023/06/08 07:17:43;;;;;;;17.97;11.40;;;17.20;96.50;;;16.82;70.75;101209.28;5030253;28;20309;-72
2023/06/08 07:20:13;;;;;;;22.57;11.37;;;17.20;96.80;;;16.76;70.18;101204.63;5029813;28;20292;-71
2023/06/08 07:22:42;;;;;;;18.73;11.47;;;17.30;96.30;;;16.87;70.41;101209.56;5029697;28;20203;-71
2023/06/08 07:25:30;;;;;;;16.77;11.33;;;17.30;96.90;;;16.94;71.54;101202.38;5030128;28;20225;-72
2023/06/08 07:28:18;;;;;;;18.20;11.10;;;17.40;96.90;;;17.05;70.79;101199.19;5029839;28;20736;-72
2023/06/08 07:30:46;;;;;;;17.00;10.70;;;17.50;97.00;;;17.12;68.23;101190.06;5030233;28;20285;-71
2023/06/08 07:33:15;;;;;;;22.73;10.20;;;17.60;95.60;;;17.16;68.03;101199.50;5029873;28;20682;-71
2023/06/08 07:35:44;;;;;;;16.33;11.50;;;17.60;95.20;;;17.21;70.12;101199.78;5027811;28;20260;-72
2023/06/08 07:38:15;;;;;;;14.73;10.27;;;17.70;96.10;;;17.29;69.30;101209.63;5029073;28;20293;-72
2023/06/08 07:40:43;;;;;;;17.37;10.90;;;17.70;96.20;;;17.40;69.58;101214.50;5029963;28;20223;-72
2023/06/08 07:43:11;;;;;;;15.60;10.17;;;17.90;96.10;;;17.48;68.59;101213.56;5029872;28;20215;-71
2023/06/08 07:45:39;;;;;;;15.67;9.80;;;17.90;95.60;;;17.53;69.53;101209.25;5030153;28;20294;-71
2023/06/08 07:48:07;;;;;;;16.30;10.00;;;18.00;96.00;;;17.61;69.21;101209.13;5029569;28;20628;-72
2023/06/08 07:50:36;;;;;;;17.80;10.73;;;18.10;96.00;;;17.78;67.59;101206.13;5029741;28;20565;-72
2023/06/08 07:53:05;;;;;;;15.83;11.10;;;18.20;94.80;;;17.93;67.00;101213.16;5029976;28;20211;-71
2023/06/08 07:55:33;;;;;;;20.03;11.33;;;18.40;94.70;;;17.92;64.95;101214.19;5029422;28;20768;-71
2023/06/08 07:58:01;;;;;;;13.73;10.07;;;18.40;93.70;;;17.95;65.46;101212.94;5029946;28;20293;-71
2023/06/08 08:00:31;;;;;;;18.47;11.00;;;18.40;93.80;;;17.97;68.06;101208.19;5028798;28;20300;-71
2023/06/08 08:02:59;;;;;;;20.50;12.13;;;18.40;94.90;;;18.02;65.74;101217.38;5028432;28;20203;-72
2023/06/08 08:05:28;;;;;;;15.13;10.07;;;18.50;94.00;;;18.10;68.09;101205.56;5029060;28;20691;-72
2023/06/08 08:07:56;;;;;;;15.00;9.93;;;18.50;94.80;;;18.20;66.70;101212.31;5038493;28;20556;-72
2023/06/08 08:10:25;;;;;;;15.30;10.00;;;18.70;94.60;;;18.25;65.79;101214.44;5045906;28;20357;-72
2023/06/08 08:12:53;;;;;;;13.83;10.03;;;18.70;94.20;;;18.31;66.69;101213.63;5028927;28;20195;-72
2023/06/08 08:15:22;;;;;;;13.67;10.23;;;18.70;94.20;;;18.36;64.59;101211.16;5029290;28;20310;-72
2023/06/08 08:17:50;;;;;;;15.80;10.47;;;18.80;93.50;;;18.40;65.24;101212.44;5028941;28;20697;-72
2023/06/08 08:20:19;;;;;;;18.57;10.80;;;18.80;93.70;;;18.39;64.88;101210.75;5029022;28;20769;-72
2023/06/08 08:22:47;;;;;;;17.00;10.50;;;18.80;93.40;;;18.48;64.73;101208.72;5028844;28;20264;-72
2023/06/08 08:25:15;;;;;;;19.27;11.33;;;18.90;93.50;;;18.52;65.84;101208.16;5028850;28;20262;-72
2023/06/08 08:27:44;;;;;;;18.80;10.50;;;18.90;93.80;;;18.54;65.41;101208.78;5028964;28;20210;-72
2023/06/08 08:30:14;;;;;;;16.70;10.13;;;19.00;93.70;;;18.57;65.64;101208.38;5028480;28;20782;-71
2023/06/08 08:32:42;;;;;;;16.60;10.53;;;19.00;93.70;;;18.62;65.65;101207.78;5029387;28;20653;-72
2023/06/08 08:35:11;;;;;;;17.10;11.30;;;19.00;93.70;;;18.68;63.74;101210.53;5028593;28;20262;-71
2023/06/08 08:37:39;;;;;;;16.73;11.37;;;19.10;93.00;;;18.77;64.75;101196.81;5023801;28;20206;-71
2023/06/08 08:40:09;;;;;;;14.93;10.53;;;19.10;93.30;;;18.82;64.66;101203.28;5028530;28;20276;-72
2023/06/08 08:42:47;;;;;;;14.53;10.20;;;19.20;93.20;;;18.86;65.41;101206.44;5028779;28;20261;-72
2023/06/08 08:45:17;;;;;;;15.73;9.67;;;19.30;93.60;;;18.92;65.43;101202.88;5028791;28;20265;-72
2023/06/08 08:47:45;;;;;;;20.77;11.67;;;19.30;93.60;;;18.97;63.91;101205.84;5028616;28;20198;-72
2023/06/08 08:50:16;;;;;;;24.37;11.10;;;19.30;92.90;;;19.02;64.91;101212.31;5028113;28;20238;-72
2023/06/08 08:52:48;;;;;;;17.37;9.63;;;19.40;93.40;;;19.04;63.41;101204.81;5028719;28;20289;-72
2023/06/08 08:55:16;;;;;;;15.03;9.80;;;19.40;92.60;;;19.06;61.96;101205.47;5028905;28;20235;-72
2023/06/08 08:58:05;;;;;;;12.90;9.57;;;19.40;91.70;;;19.12;63.32;101201.06;5028901;28;20190;-73
2023/06/08 09:00:34;;;;;;;16.33;9.23;;;19.50;92.40;;;19.17;63.55;101198.59;5028353;28;20242;-71
2023/06/08 09:03:03;;;;;;;16.47;10.60;;;19.50;92.60;;;19.22;63.00;101190.66;5028334;28;20292;-72
2023/06/08 09:05:32;;;;;;;14.23;9.43;;;19.60;92.40;;;19.23;62.55;101192.34;5028133;28;20633;-71
2023/06/08 09:08:00;;;;;;;18.67;10.97;;;19.60;92.00;;;19.29;62.11;101196.09;5028566;28;20268;-72
2023/06/08 09:10:28;;;;;;;17.33;10.73;;;19.70;91.80;;;19.33;63.39;101197.34;5028274;28;20671;-72
2023/06/08 09:12:57;;;;;;;17.30;10.60;;;19.70;92.40;;;19.39;62.08;101194.66;5027985;28;20205;-72
2023/06/08 09:15:30;;;;;;;13.53;10.33;;;19.80;91.70;;;19.41;62.30;101194.50;5027928;28;20256;-73
2023/06/08 09:18:15;;;;;;;13.93;10.33;;;19.80;91.80;;;19.43;61.79;101193.25;5028055;28;20215;-71
2023/06/08 09:20:45;;;;;;;18.93;15.80;;;19.80;91.40;;;19.50;61.81;101201.38;5028641;28;20217;-72
2023/06/08 09:23:20;;;;;;;18.00;12.00;;;19.90;91.60;;;19.51;61.56;101203.06;5028197;28;20241;-72
2023/06/08 09:25:48;;;;;;;15.27;11.30;;;19.90;91.40;;;19.55;61.44;101199.75;5027948;28;20191;-72
2023/06/08 09:28:24;;;;;;;18.60;11.83;;;19.90;91.30;;;19.60;62.05;101196.38;5028055;28;20217;-72
2023/06/08 09:30:57;;;;;;;14.77;10.73;;;20.00;91.70;;;19.66;62.96;101198.25;5028101;28;20226;-72
2023/06/08 09:33:29;;;;;;;11.90;9.57;;;20.00;92.00;;;19.72;62.86;101202.88;5027866;28;20261;-72
2023/06/08 09:36:18;;;;;;;15.90;9.87;;;20.10;92.10;;;19.79;61.70;101192.84;5028073;28;20278;-72
2023/06/08 09:38:55;;;;;;;17.27;10.20;;;20.20;91.40;;;19.84;61.75;101200.34;5026280;28;20203;-71
2023/06/08 09:41:25;;;;;;;13.40;9.93;;;20.20;91.60;;;19.89;61.88;101192.41;5031647;28;20248;-72
2023/06/08 09:43:53;;;;;;;13.80;10.87;;;20.30;91.30;;;19.97;61.96;101194.91;5031804;28;20229;-72
2023/06/08 09:46:38;;;;;;;16.13;10.27;;;20.30;91.60;;;20.05;61.74;101194.69;5032188;28;20207;-72
2023/06/08 09:49:08;;;;;;;15.30;10.00;;;20.40;91.50;;;20.11;60.46;101196.56;5031713;28;20238;-72
2023/06/08 09:51:38;;;;;;;12.90;10.40;;;20.50;90.80;;;20.17;60.84;101193.03;5032045;28;20801;-71
2023/06/08 09:54:10;;;;;;;13.53;11.37;;;20.50;90.80;;;20.21;59.97;101181.50;5031912;28;20231;-72
2023/06/08 09:56:40;;;;;;;16.97;11.27;;;20.60;90.50;;;20.24;59.96;101188.38;5032377;28;20203;-71
2023/06/08 09:59:14;;;;;;;14.53;12.70;;;20.60;90.20;;;20.24;59.76;101191.09;5031681;28;20195;-71
2023/06/08 10:01:49;;;;;;;23.40;10.97;;;20.60;90.10;;;20.33;59.60;101189.88;5031527;28;20746;-72
2023/06/08 10:04:23;;;;;;;23.17;14.13;;;20.70;90.20;;;20.36;59.64;101189.44;5031619;28;20269;-72
2023/06/08 10:06:57;;;;;;;17.27;12.30;;;20.70;90.10;;;20.45;60.36;101190.88;5031751;28;20202;-72
2023/06/08 10:09:29;;;;;;;25.90;21.80;;;20.80;90.70;;;20.48;59.90;101176.84;5031473;28;20578;-72
2023/06/08 10:12:01;;;;;;;14.23;10.23;;;20.80;90.30;;;20.55;60.60;101183.09;5031786;28;20289;-72
2023/06/08 10:14:32;;;;;;;18.83;10.57;;;20.90;90.70;;;20.57;58.51;101181.00;5031406;28;20322;-73
2023/06/08 10:17:02;;;;;;;15.27;10.27;;;20.90;89.10;;;20.63;58.86;101185.59;5031204;28;20219;-72
2023/06/08 10:19:33;;;;;;;12.70;8.20;;;20.90;89.20;;;20.74;59.39;101182.19;5031420;28;20286;-72